Time;durP1;ratioP1;P1;durP2;ratioP2;P2;SDS_P1;SDS_P2;PMS_P1;PMS_P2;Temp;Humidity;BMP_temperature;BMP_pressure;BME280_temperature;BME280_humidity;BME280_pressure;Samples;Min_cycle;Max_cycle;Signal;HPM_P1;HPM_P2
2021/05/17 00:00:46;;;;;;;6.93;1.45;;;11.00;99.90;;;;;;6275588;28;20079;-77
2021/05/17 00:03:49;;;;;;;6.55;1.85;;;11.10;99.90;;;;;;6276798;28;20053;-77
2021/05/17 00:06:51;;;;;;;3.10;1.48;;;11.00;99.90;;;;;;6275863;28;20041;-78
2021/05/17 00:09:52;;;;;;;3.30;1.20;;;11.00;99.90;;;;;;6275606;28;20418;-77
2021/05/17 00:12:55;;;;;;;3.97;1.17;;;11.00;99.90;;;;;;6274357;28;20128;-77
2021/05/17 00:15:56;;;;;;;4.60;1.63;;;11.00;99.90;;;;;;6275951;28;20077;-77
2021/05/17 00:18:58;;;;;;;2.08;1.58;;;11.00;99.90;;;;;;6276003;28;20075;-77
2021/05/17 00:22:00;;;;;;;2.13;1.65;;;11.00;99.90;;;;;;6275056;28;20187;-77
2021/05/17 00:25:02;;;;;;;4.22;1.73;;;11.00;99.90;;;;;;6275697;28;20075;-77
2021/05/17 00:28:05;;;;;;;3.55;1.50;;;11.00;99.90;;;;;;6275591;28;20190;-77
2021/05/17 00:31:07;;;;;;;4.43;1.90;;;11.00;99.90;;;;;;6277854;28;20076;-76
2021/05/17 00:34:09;;;;;;;2.75;2.13;;;11.00;99.90;;;;;;6274844;28;20059;-77
2021/05/17 00:37:11;;;;;;;2.97;1.88;;;11.00;99.90;;;;;;6275161;28;20128;-77
2021/05/17 00:40:15;;;;;;;3.45;1.40;;;10.90;99.90;;;;;;6274798;28;20060;-77
2021/05/17 00:43:25;;;;;;;3.75;1.65;;;10.90;99.90;;;;;;6275401;28;20084;-77
2021/05/17 00:46:26;;;;;;;10.00;1.88;;;10.80;99.90;;;;;;6274914;28;20044;-77
2021/05/17 00:49:28;;;;;;;1.23;1.10;;;10.70;99.90;;;;;;6274080;28;20091;-77
2021/05/17 00:52:30;;;;;;;3.88;1.38;;;10.80;99.90;;;;;;6275221;28;20495;-77
2021/05/17 00:55:32;;;;;;;1.92;1.52;;;10.80;99.90;;;;;;6274688;28;20052;-76
2021/05/17 00:58:34;;;;;;;5.25;1.45;;;10.80;99.90;;;;;;6274308;28;20566;-76
2021/05/17 01:01:36;;;;;;;3.97;1.52;;;10.80;99.90;;;;;;6274195;28;20080;-77
2021/05/17 01:04:37;;;;;;;2.78;1.83;;;10.90;99.90;;;;;;6274959;28;20141;-77
2021/05/17 01:07:45;;;;;;;2.63;1.65;;;10.90;99.90;;;;;;6274781;28;20077;-77
2021/05/17 01:10:47;;;;;;;4.53;1.80;;;10.90;99.90;;;;;;6273920;28;20073;-77
2021/05/17 01:13:51;;;;;;;3.83;1.55;;;11.00;99.90;;;;;;6274363;28;20127;-77
2021/05/17 01:16:54;;;;;;;1.75;1.30;;;11.00;99.90;;;;;;6273635;28;20128;-77
2021/05/17 01:20:05;;;;;;;1.70;1.60;;;11.00;99.90;;;;;;6273756;28;20060;-77
2021/05/17 01:23:30;;;;;;;2.47;1.40;;;11.00;99.90;;;;;;6274644;28;20150;-77
2021/05/17 01:26:35;;;;;;;2.13;1.80;;;11.10;99.90;;;;;;6273589;28;20049;-77
2021/05/17 01:29:36;;;;;;;1.30;1.20;;;11.10;99.90;;;;;;6273454;28;20076;-77
2021/05/17 01:32:38;;;;;;;1.58;1.23;;;11.10;99.90;;;;;;6273776;28;20123;-77
2021/05/17 01:35:42;;;;;;;3.15;2.85;;;11.10;99.90;;;;;;6273838;28;20120;-77
2021/05/17 01:38:46;;;;;;;4.25;1.30;;;11.10;99.90;;;;;;6273937;28;20139;-76
2021/05/17 01:41:50;;;;;;;1.98;1.30;;;11.10;99.90;;;;;;6273819;28;20127;-77
2021/05/17 01:44:52;;;;;;;7.55;1.75;;;11.10;99.90;;;;;;6275092;28;20080;-77
2021/05/17 01:47:53;;;;;;;2.67;1.10;;;11.10;99.90;;;;;;6273923;28;20140;-76
2021/05/17 01:50:55;;;;;;;1.40;1.25;;;11.10;99.90;;;;;;6273349;28;20080;-76
2021/05/17 01:53:59;;;;;;;3.28;1.20;;;11.10;99.90;;;;;;6273032;28;20041;-77
2021/05/17 01:57:00;;;;;;;1.65;1.50;;;11.10;99.90;;;;;;6273086;28;20422;-77
2021/05/17 02:00:03;;;;;;;5.78;1.30;;;11.10;99.90;;;;;;6272474;28;20140;-77
2021/05/17 02:03:05;;;;;;;8.10;1.20;;;11.10;99.90;;;;;;6273414;28;20581;-77
2021/05/17 02:06:07;;;;;;;4.57;1.88;;;11.10;99.90;;;;;;6272353;28;20118;-76
2021/05/17 02:09:11;;;;;;;0.93;0.85;;;11.10;99.90;;;;;;6272473;28;20053;-77
2021/05/17 02:12:15;;;;;;;3.10;1.15;;;11.00;99.90;;;;;;6272754;28;20473;-77
2021/05/17 02:15:18;;;;;;;3.75;1.27;;;11.00;99.90;;;;;;6272615;28;20489;-77
2021/05/17 02:18:20;;;;;;;3.13;0.88;;;11.00;99.90;;;;;;6272059;28;20586;-77
2021/05/17 02:21:22;;;;;;;2.63;0.85;;;11.00;99.90;;;;;;6271731;28;20131;-77
2021/05/17 02:24:25;;;;;;;2.00;0.75;;;11.00;99.90;;;;;;6272105;28;20119;-77
2021/05/17 02:27:27;;;;;;;3.47;1.90;;;11.00;99.90;;;;;;6272208;28;20112;-77
2021/05/17 02:30:29;;;;;;;3.78;1.02;;;11.00;99.90;;;;;;6272366;28;20444;-77
2021/05/17 02:33:30;;;;;;;1.08;0.98;;;11.00;99.90;;;;;;6271747;28;20117;-77
2021/05/17 02:36:32;;;;;;;3.40;1.02;;;11.00;99.90;;;;;;6271780;28;20459;-77
2021/05/17 02:39:35;;;;;;;2.03;0.70;;;11.00;99.90;;;;;;6272079;28;20520;-77
2021/05/17 02:42:36;;;;;;;2.83;1.02;;;10.90;99.90;;;;;;6271732;28;20128;-77
2021/05/17 02:45:39;;;;;;;4.65;1.45;;;10.90;99.90;;;;;;6271474;28;20123;-77
2021/05/17 02:48:41;;;;;;;4.60;1.25;;;10.90;99.90;;;;;;6271962;28;20040;-77
2021/05/17 02:51:43;;;;;;;2.33;0.70;;;10.90;99.90;;;;;;6272267;28;20059;-77
2021/05/17 02:54:57;;;;;;;2.85;0.90;;;10.90;99.90;;;;;;6271635;28;20045;-77
2021/05/17 02:58:07;;;;;;;1.80;1.05;;;10.90;99.90;;;;;;6271547;28;20132;-77
2021/05/17 03:01:10;;;;;;;1.75;0.88;;;10.90;99.90;;;;;;6271404;28;20052;-77
2021/05/17 03:04:16;;;;;;;2.28;0.50;;;10.90;99.90;;;;;;6272171;28;20056;-77
2021/05/17 03:07:19;;;;;;;3.55;0.90;;;10.90;99.90;;;;;;6272166;28;20041;-78
2021/05/17 03:10:23;;;;;;;3.67;0.95;;;10.90;99.90;;;;;;6271873;28;20133;-77
2021/05/17 03:13:27;;;;;;;1.73;1.23;;;10.90;99.90;;;;;;6271708;28;20048;-78
2021/05/17 03:16:28;;;;;;;3.72;1.02;;;10.80;99.90;;;;;;6272063;28;20175;-78
2021/05/17 03:19:30;;;;;;;0.95;0.90;;;10.70;99.90;;;;;;6271988;28;20155;-77
2021/05/17 03:22:32;;;;;;;3.45;1.05;;;10.70;99.90;;;;;;6271611;28;20514;-77
2021/05/17 03:25:36;;;;;;;5.05;1.20;;;10.70;99.90;;;;;;6271392;28;20140;-77
2021/05/17 03:28:37;;;;;;;9.00;1.23;;;10.70;99.90;;;;;;6271014;28;20106;-77
2021/05/17 03:31:38;;;;;;;4.68;1.58;;;10.60;99.90;;;;;;6272024;28;20080;-77
2021/05/17 03:34:40;;;;;;;2.80;1.15;;;10.60;99.90;;;;;;6272464;28;20523;-77
2021/05/17 03:37:41;;;;;;;1.27;0.95;;;10.60;99.90;;;;;;6273043;28;20643;-78
2021/05/17 03:40:44;;;;;;;2.28;1.40;;;10.60;99.90;;;;;;6275115;28;20076;-77
2021/05/17 03:43:45;;;;;;;5.20;1.95;;;10.60;99.90;;;;;;6273018;28;20130;-77
2021/05/17 03:46:46;;;;;;;3.03;0.98;;;10.50;99.90;;;;;;6271076;28;20064;-77
2021/05/17 03:49:47;;;;;;;7.10;1.35;;;10.50;99.90;;;;;;6271290;28;20079;-78
2021/05/17 03:52:49;;;;;;;5.32;1.48;;;10.50;99.90;;;;;;6271336;28;20143;-77
2021/05/17 03:55:51;;;;;;;4.05;1.20;;;10.60;99.90;;;;;;6272230;28;20148;-77
2021/05/17 03:58:52;;;;;;;2.28;1.35;;;10.50;99.90;;;;;;6271018;28;20095;-78
2021/05/17 04:01:53;;;;;;;8.07;2.15;;;10.50;99.90;;;;;;6271178;28;20055;-78
2021/05/17 04:05:03;;;;;;;8.23;2.33;;;10.40;99.90;;;;;;6271176;28;20072;-78
2021/05/17 04:14:43;;;;;;;3.03;0.85;;;10.50;99.90;;;;;;6276705;28;20049;-77
2021/05/17 04:17:44;;;;;;;1.13;1.00;;;10.50;99.90;;;;;;6276076;28;20069;-78
2021/05/17 04:20:46;;;;;;;2.22;0.95;;;10.50;99.90;;;;;;6276656;28;20708;-77
2021/05/17 04:23:48;;;;;;;11.02;1.58;;;10.40;99.90;;;;;;6279258;28;20080;-78
2021/05/17 04:26:50;;;;;;;2.80;1.02;;;10.40;99.90;;;;;;6280002;28;20509;-78
2021/05/17 04:29:51;;;;;;;6.65;1.52;;;10.40;99.90;;;;;;6279140;28;20068;-77
2021/05/17 04:32:53;;;;;;;3.70;1.30;;;10.50;99.90;;;;;;6280771;28;20067;-77
2021/05/17 04:35:54;;;;;;;1.67;1.02;;;10.50;99.90;;;;;;6285080;28;20068;-77
2021/05/17 04:38:57;;;;;;;5.15;1.35;;;10.50;99.90;;;;;;6278099;28;20183;-77
2021/05/17 04:41:59;;;;;;;3.35;1.60;;;10.60;99.90;;;;;;6275144;28;20056;-77
2021/05/17 04:45:01;;;;;;;2.30;1.40;;;10.80;99.90;;;;;;6274880;28;20171;-77
2021/05/17 04:48:02;;;;;;;8.68;1.80;;;10.90;99.90;;;;;;6274715;28;20152;-76
2021/05/17 04:51:04;;;;;;;4.53;1.20;;;10.90;99.90;;;;;;6274607;28;20406;-77
2021/05/17 04:54:06;;;;;;;3.75;1.23;;;10.80;99.90;;;;;;6274493;28;20135;-77
2021/05/17 04:57:08;;;;;;;4.85;1.85;;;10.70;99.90;;;;;;6274551;28;20127;-77
2021/05/17 05:00:11;;;;;;;9.10;1.60;;;10.70;99.90;;;;;;6274454;28;20055;-77
2021/05/17 05:03:12;;;;;;;4.88;1.40;;;10.70;99.90;;;;;;6274831;28;20135;-77
2021/05/17 05:06:13;;;;;;;2.88;1.23;;;10.80;99.90;;;;;;6273774;28;20487;-76
2021/05/17 05:09:15;;;;;;;1.58;1.10;;;10.80;99.90;;;;;;6273875;28;20132;-76
2021/05/17 05:12:17;;;;;;;5.07;1.45;;;10.80;99.90;;;;;;6274234;28;20110;-77
2021/05/17 05:15:18;;;;;;;3.03;1.35;;;10.70;99.90;;;;;;6274627;28;20618;-77
2021/05/17 05:18:20;;;;;;;6.60;1.45;;;10.70;99.90;;;;;;6273847;28;20051;-76
2021/05/17 05:21:22;;;;;;;4.45;1.27;;;10.60;99.90;;;;;;6274058;28;20065;-77
2021/05/17 05:24:23;;;;;;;1.83;1.23;;;10.70;99.90;;;;;;6274116;28;20455;-77
2021/05/17 05:27:28;;;;;;;4.72;1.10;;;10.70;99.90;;;;;;6274547;28;20080;-76
2021/05/17 05:30:41;;;;;;;2.13;0.90;;;10.70;99.90;;;;;;6273769;28;20045;-76
2021/05/17 05:33:42;;;;;;;1.50;0.85;;;10.70;99.90;;;;;;6273779;28;20045;-77
2021/05/17 05:36:44;;;;;;;11.45;1.67;;;10.70;99.90;;;;;;6273809;28;20049;-76
2021/05/17 05:39:45;;;;;;;1.55;0.90;;;10.70;99.90;;;;;;6274142;28;20083;-77
2021/05/17 05:42:47;;;;;;;3.00;0.80;;;10.70;99.90;;;;;;6273443;28;20126;-77
2021/05/17 05:45:50;;;;;;;2.60;0.95;;;10.70;99.90;;;;;;6273572;28;20094;-77
2021/05/17 05:48:52;;;;;;;2.42;1.33;;;10.60;99.90;;;;;;6273019;28;20052;-77
2021/05/17 05:51:53;;;;;;;9.90;1.42;;;10.70;99.90;;;;;;6273562;28;20068;-77
2021/05/17 05:54:54;;;;;;;3.22;1.20;;;10.70;99.90;;;;;;6273608;28;20481;-77
2021/05/17 05:57:57;;;;;;;1.73;0.90;;;10.90;99.90;;;;;;6273527;28;20068;-77
2021/05/17 06:00:58;;;;;;;3.65;1.05;;;11.10;99.90;;;;;;6273002;28;20057;-76
2021/05/17 06:03:59;;;;;;;1.55;1.00;;;11.50;99.90;;;;;;6267753;28;20128;-77
2021/05/17 06:07:01;;;;;;;1.50;1.00;;;12.20;99.90;;;;;;6270171;28;20135;-77
2021/05/17 06:10:03;;;;;;;2.92;1.10;;;12.80;99.90;;;;;;6272290;28;20079;-77
2021/05/17 06:13:05;;;;;;;3.85;1.42;;;12.80;99.90;;;;;;6273030;28;20047;-76
2021/05/17 06:16:08;;;;;;;4.38;0.95;;;12.70;99.90;;;;;;6272550;28;20045;-76
2021/05/17 06:19:11;;;;;;;3.20;1.55;;;12.50;99.90;;;;;;6273132;28;20140;-77
2021/05/17 06:22:12;;;;;;;4.20;1.33;;;12.30;99.90;;;;;;6273879;28;20052;-78
2021/05/17 06:25:15;;;;;;;2.53;0.77;;;12.70;99.90;;;;;;6276076;28;20053;-78
2021/05/17 06:28:20;;;;;;;2.97;1.08;;;13.20;99.90;;;;;;6276956;28;20119;-78
2021/05/17 06:31:22;;;;;;;2.05;1.10;;;13.20;98.70;;;;;;6275970;28;20494;-79
2021/05/17 06:34:24;;;;;;;2.00;1.05;;;13.20;98.50;;;;;;6277098;28;20056;-80
2021/05/17 06:37:25;;;;;;;1.20;0.90;;;13.20;98.50;;;;;;6277439;28;20148;-79
2021/05/17 06:40:27;;;;;;;2.75;0.90;;;13.40;98.40;;;;;;6277011;28;20127;-80
2021/05/17 06:43:30;;;;;;;1.38;0.68;;;13.60;97.60;;;;;;6276916;28;20071;-79
2021/05/17 06:46:32;;;;;;;2.50;1.40;;;14.00;97.90;;;;;;6276437;28;20045;-78
2021/05/17 06:49:34;;;;;;;1.75;1.17;;;14.40;95.90;;;;;;6277331;28;20068;-80
2021/05/17 06:52:36;;;;;;;1.35;0.90;;;14.60;95.30;;;;;;6277350;28;20045;-79
2021/05/17 06:55:42;;;;;;;2.30;0.80;;;14.80;92.50;;;;;;6278230;28;20060;-78
2021/05/17 06:58:54;;;;;;;4.25;1.13;;;14.70;92.60;;;;;;6277075;28;20060;-80
2021/05/17 07:01:56;;;;;;;5.32;2.33;;;14.50;92.50;;;;;;6277544;28;20049;-79
2021/05/17 07:04:58;;;;;;;4.20;1.23;;;14.10;93.30;;;;;;6277432;28;20065;-79
2021/05/17 07:11:40;;;;;;;3.83;1.55;;;13.20;96.90;;;;;;6277693;28;20053;-78
2021/05/17 07:14:42;;;;;;;2.05;1.35;;;12.70;99.90;;;;;;6275117;28;20411;-78
2021/05/17 07:17:44;;;;;;;3.92;1.48;;;12.50;99.90;;;;;;6276659;28;20052;-79
2021/05/17 07:24:08;;;;;;;2.50;1.30;;;12.20;99.90;;;;;;6274486;28;20406;-79
2021/05/17 07:27:09;;;;;;;6.25;3.90;;;12.20;99.90;;;;;;6276180;28;20068;-78
2021/05/17 07:30:13;;;;;;;2.92;1.48;;;12.50;99.90;;;;;;6274561;28;20041;-76
2021/05/17 07:33:15;;;;;;;3.13;1.60;;;13.10;99.90;;;;;;6271731;28;20486;-76
2021/05/17 07:36:17;;;;;;;4.00;2.22;;;13.70;99.90;;;;;;6272306;28;20069;-77
2021/05/17 07:39:19;;;;;;;4.43;1.48;;;14.30;99.90;;;;;;6273233;28;20052;-78
2021/05/17 07:42:20;;;;;;;5.95;2.30;;;14.90;99.90;;;;;;6271561;28;20069;-77
2021/05/17 07:45:22;;;;;;;2.17;1.25;;;15.30;99.40;;;;;;6273523;28;20045;-77
2021/05/17 07:48:24;;;;;;;3.00;1.40;;;15.40;98.20;;;;;;6277278;28;20136;-77
2021/05/17 07:51:26;;;;;;;1.95;1.30;;;16.00;96.90;;;;;;6278898;28;20080;-78
2021/05/17 07:54:27;;;;;;;4.60;1.13;;;16.10;94.90;;;;;;6278248;28;20051;-78
2021/05/17 07:57:29;;;;;;;4.85;0.95;;;16.10;93.70;;;;;;6276278;28;20045;-77
2021/05/17 08:00:31;;;;;;;8.50;1.15;;;16.00;93.40;;;;;;6275694;28;20069;-76
2021/05/17 08:03:32;;;;;;;2.22;0.73;;;15.60;92.10;;;;;;6277652;28;20136;-77
2021/05/17 08:06:34;;;;;;;3.13;1.10;;;15.10;92.50;;;;;;6275896;28;20068;-76
2021/05/17 08:09:35;;;;;;;1.85;1.42;;;14.70;92.60;;;;;;6275785;28;20498;-77
2021/05/17 08:12:36;;;;;;;2.78;0.75;;;14.50;93.30;;;;;;6275846;28;20098;-77
2021/05/17 08:15:38;;;;;;;0.93;0.73;;;14.40;93.70;;;;;;6276312;28;20083;-77
2021/05/17 08:18:40;;;;;;;2.08;0.80;;;14.20;93.90;;;;;;6275295;28;20188;-77
2021/05/17 08:21:41;;;;;;;2.47;1.15;;;14.20;94.00;;;;;;6276543;28;20128;-77
2021/05/17 08:24:43;;;;;;;3.75;0.98;;;14.10;94.80;;;;;;6275620;28;20059;-77
2021/05/17 08:27:44;;;;;;;6.15;1.27;;;14.00;95.50;;;;;;6275720;28;20491;-77
2021/05/17 08:30:53;;;;;;;2.03;1.13;;;13.80;96.10;;;;;;6274687;28;20058;-77
2021/05/17 08:33:56;;;;;;;2.22;1.10;;;13.70;96.90;;;;;;6275349;28;20048;-77
2021/05/17 08:36:57;;;;;;;2.92;0.88;;;13.70;97.20;;;;;;6275345;28;20090;-77
2021/05/17 08:39:59;;;;;;;2.40;1.50;;;13.70;96.90;;;;;;6275048;28;20103;-77
2021/05/17 08:43:00;;;;;;;2.88;1.27;;;13.80;96.50;;;;;;6276058;28;20099;-76
2021/05/17 08:46:02;;;;;;;1.10;0.90;;;14.30;96.90;;;;;;6281306;28;20112;-76
2021/05/17 08:49:04;;;;;;;2.92;0.88;;;14.90;95.30;;;;;;6283709;28;20053;-77
2021/05/17 08:52:06;;;;;;;6.53;1.30;;;15.10;93.80;;;;;;6275362;28;20091;-77
2021/05/17 08:55:09;;;;;;;2.88;1.00;;;15.40;93.10;;;;;;6275222;28;20103;-77
2021/05/17 08:58:11;;;;;;;5.28;2.03;;;15.50;91.70;;;;;;6275146;28;20057;-76
2021/05/17 09:01:13;;;;;;;4.38;1.20;;;15.30;90.90;;;;;;6274295;28;20068;-77
2021/05/17 09:04:16;;;;;;;1.27;0.70;;;15.20;90.30;;;;;;6274241;28;20475;-77
2021/05/17 09:07:33;;;;;;;3.83;1.50;;;15.20;89.90;;;;;;6275405;28;20100;-77
2021/05/17 09:10:36;;;;;;;2.72;1.80;;;14.90;88.90;;;;;;6274365;28;20045;-77
2021/05/17 09:13:38;;;;;;;1.48;0.75;;;14.80;90.00;;;;;;6274642;28;20124;-77
2021/05/17 09:16:55;;;;;;;6.43;1.20;;;14.90;90.10;;;;;;6274396;28;20153;-77
2021/05/17 09:19:56;;;;;;;3.20;0.90;;;15.00;89.10;;;;;;6273950;28;20474;-77
2021/05/17 09:23:16;;;;;;;6.30;1.30;;;15.10;88.40;;;;;;6275647;28;20139;-77
2021/05/17 09:26:19;;;;;;;2.53;0.90;;;15.50;89.00;;;;;;6274126;28;20120;-77
2021/05/17 09:29:23;;;;;;;2.63;1.00;;;15.70;85.90;;;;;;6273893;28;20434;-76
2021/05/17 09:32:26;;;;;;;2.38;0.75;;;16.20;84.80;;;;;;6275667;28;20041;-77
2021/05/17 09:35:29;;;;;;;3.45;0.73;;;17.00;80.60;;;;;;6276500;28;20057;-77
2021/05/17 09:38:31;;;;;;;3.78;0.85;;;17.40;78.50;;;;;;6273406;28;20053;-77
2021/05/17 09:41:40;;;;;;;6.22;1.13;;;17.20;76.60;;;;;;6273580;28;20075;-76
2021/05/17 09:44:45;;;;;;;5.32;1.95;;;16.50;79.50;;;;;;6273228;28;20052;-76
2021/05/17 09:47:55;;;;;;;4.35;0.80;;;15.80;84.70;;;;;;6274229;28;20498;-76
2021/05/17 09:51:07;;;;;;;2.28;1.45;;;15.00;87.50;;;;;;6274901;28;20059;-77
2021/05/17 09:54:12;;;;;;;1.92;1.40;;;14.20;91.70;;;;;;6276068;28;20423;-76
2021/05/17 09:57:16;;;;;;;4.45;1.50;;;13.60;94.30;;;;;;6275934;28;20155;-76
2021/05/17 10:00:21;;;;;;;5.20;1.63;;;13.20;96.50;;;;;;6275495;28;20071;-76
2021/05/17 10:03:23;;;;;;;5.40;1.83;;;13.00;98.30;;;;;;6275845;28;20045;-76
2021/05/17 10:06:26;;;;;;;2.65;1.75;;;12.90;99.70;;;;;;6275104;28;20575;-77
2021/05/17 10:09:27;;;;;;;7.28;2.00;;;12.90;99.90;;;;;;6274455;28;20068;-76
2021/05/17 10:12:29;;;;;;;4.50;1.75;;;12.90;99.90;;;;;;6274595;28;20448;-76
2021/05/17 10:15:32;;;;;;;3.45;2.08;;;12.90;99.90;;;;;;6275634;28;20076;-76
2021/05/17 10:18:37;;;;;;;6.57;2.08;;;12.80;99.90;;;;;;6275546;28;20056;-78
2021/05/17 10:21:38;;;;;;;6.65;1.77;;;12.80;99.90;;;;;;6274802;28;20094;-76
2021/05/17 10:24:40;;;;;;;1.90;1.55;;;12.70;99.90;;;;;;6275784;28;20088;-79
2021/05/17 10:27:46;;;;;;;2.10;1.40;;;12.70;99.90;;;;;;6275581;28;20044;-76
2021/05/17 10:30:48;;;;;;;4.50;1.60;;;12.60;99.90;;;;;;6274489;28;20127;-78
2021/05/17 10:33:59;;;;;;;6.55;2.33;;;12.50;99.90;;;;;;6274848;28;20132;-79
2021/05/17 10:37:02;;;;;;;3.15;1.52;;;12.40;99.90;;;;;;6275274;28;20045;-78
2021/05/17 10:40:05;;;;;;;2.60;0.95;;;12.40;99.90;;;;;;6276181;28;20056;-78
2021/05/17 10:43:16;;;;;;;3.38;1.60;;;12.60;99.90;;;;;;6277665;28;20126;-78
2021/05/17 10:46:37;;;;;;;1.65;1.17;;;13.10;99.90;;;;;;6276291;28;20116;-78
2021/05/17 10:49:40;;;;;;;2.35;1.35;;;14.00;99.90;;;;;;6275561;28;20307;-78
2021/05/17 10:52:41;;;;;;;1.38;1.27;;;14.50;99.90;;;;;;6276365;28;20083;-78
2021/05/17 10:55:47;;;;;;;4.65;1.23;;;14.70;99.90;;;;;;6276180;28;20048;-78
2021/05/17 11:02:27;;;;;;;1.90;0.95;;;14.20;99.90;;;;;;6276538;28;20498;-78
2021/05/17 11:05:31;;;;;;;3.63;1.23;;;14.20;99.90;;;;;;6275946;28;20041;-78
2021/05/17 11:08:32;;;;;;;5.85;1.67;;;14.30;99.90;;;;;;6275342;28;20143;-79
2021/05/17 11:11:34;;;;;;;1.77;0.85;;;14.40;99.90;;;;;;6276200;28;20404;-78
2021/05/17 11:14:36;;;;;;;2.85;0.98;;;14.50;99.90;;;;;;6276262;28;20064;-78
2021/05/17 11:18:03;;;;;;;2.63;1.23;;;14.60;99.90;;;;;;6276035;28;20037;-78
2021/05/17 11:21:09;;;;;;;1.23;0.95;;;15.00;99.90;;;;;;6251498;28;20055;-78
2021/05/17 11:24:13;;;;;;;2.50;0.93;;;15.40;99.90;;;;;;6272529;28;20045;-78
2021/05/17 11:27:15;;;;;;;2.03;0.80;;;15.70;98.00;;;;;;6273576;28;20049;-79
2021/05/17 11:30:38;;;;;;;0.90;0.85;;;16.00;96.30;;;;;;6274433;28;20122;-78
2021/05/17 11:33:48;;;;;;;2.42;0.80;;;16.40;95.30;;;;;;6274240;28;20206;-79
2021/05/17 11:36:53;;;;;;;1.50;0.70;;;16.70;93.60;;;;;;6275387;28;20041;-79
2021/05/17 11:39:54;;;;;;;4.25;0.50;;;16.90;92.20;;;;;;6275881;28;20059;-76
2021/05/17 11:42:58;;;;;;;2.17;0.63;;;17.20;91.10;;;;;;6275252;28;20154;-79
2021/05/17 11:46:00;;;;;;;2.53;0.50;;;17.50;89.30;;;;;;6274618;28;20049;-79
2021/05/17 11:49:01;;;;;;;0.60;0.45;;;17.70;84.40;;;;;;6274158;28;20120;-78
2021/05/17 11:52:05;;;;;;;0.45;0.45;;;17.70;82.70;;;;;;6276291;28;20184;-77
2021/05/17 11:55:10;;;;;;;1.27;0.50;;;17.40;82.40;;;;;;6273070;28;20049;-77
2021/05/17 11:58:11;;;;;;;1.60;0.50;;;16.70;81.60;;;;;;6271774;28;20099;-78
2021/05/17 12:01:17;;;;;;;1.00;0.60;;;16.10;81.20;;;;;;6274288;28;20045;-78
2021/05/17 12:04:21;;;;;;;0.50;0.50;;;15.40;83.40;;;;;;6273983;28;20503;-78
2021/05/17 12:07:23;;;;;;;2.78;0.70;;;15.10;84.50;;;;;;6273627;28;20045;-78
2021/05/17 12:10:34;;;;;;;0.63;0.52;;;15.10;87.10;;;;;;6271471;28;20087;-77
2021/05/17 12:13:44;;;;;;;0.65;0.50;;;15.30;85.50;;;;;;6272149;28;20571;-78
2021/05/17 12:16:45;;;;;;;2.05;0.70;;;15.30;84.90;;;;;;6270313;28;20135;-78
2021/05/17 12:19:49;;;;;;;1.85;0.40;;;15.30;83.80;;;;;;6271183;28;20205;-77
2021/05/17 12:22:51;;;;;;;1.13;0.77;;;15.30;83.80;;;;;;6272471;28;20052;-77
2021/05/17 12:25:57;;;;;;;0.60;0.52;;;15.40;86.90;;;;;;6272499;28;20063;-79
2021/05/17 12:29:02;;;;;;;0.60;0.60;;;15.10;88.60;;;;;;6271972;28;20577;-78
2021/05/17 12:32:11;;;;;;;1.38;0.73;;;14.70;89.70;;;;;;6274536;28;20135;-78
2021/05/17 12:35:14;;;;;;;2.17;0.88;;;14.20;91.60;;;;;;6276577;28;20489;-77
2021/05/17 12:38:19;;;;;;;3.30;0.65;;;13.80;93.80;;;;;;6275719;28;20375;-78
2021/05/17 12:41:34;;;;;;;2.05;1.27;;;13.60;95.50;;;;;;6276176;28;20128;-78
2021/05/17 12:44:39;;;;;;;4.95;4.55;;;13.80;97.50;;;;;;6276843;28;20116;-77
2021/05/17 12:47:42;;;;;;;2.65;1.15;;;14.10;97.90;;;;;;6276127;28;20048;-78
2021/05/17 12:50:45;;;;;;;2.63;2.25;;;14.30;96.80;;;;;;6276312;28;20055;-79
2021/05/17 12:53:48;;;;;;;0.40;0.40;;;14.70;95.70;;;;;;6279108;28;20108;-78
2021/05/17 12:56:50;;;;;;;0.85;0.82;;;14.80;92.80;;;;;;6282812;28;20069;-78
2021/05/17 12:59:51;;;;;;;0.40;0.38;;;15.00;91.80;;;;;;6280991;28;20049;-78
2021/05/17 13:03:03;;;;;;;3.05;0.50;;;15.40;90.90;;;;;;6278701;28;20053;-78
2021/05/17 13:06:10;;;;;;;0.60;0.55;;;15.80;88.40;;;;;;6282317;28;20072;-78
2021/05/17 13:09:20;;;;;;;0.30;0.30;;;16.10;87.10;;;;;;6288518;28;20457;-78
2021/05/17 13:12:21;;;;;;;0.82;0.60;;;16.40;86.20;;;;;;6278740;28;20052;-79
2021/05/17 13:15:23;;;;;;;0.40;0.32;;;16.70;82.20;;;;;;6278996;28;20085;-78
2021/05/17 13:18:29;;;;;;;3.00;0.40;;;16.90;82.00;;;;;;6279034;28;20068;-79
2021/05/17 13:21:38;;;;;;;1.67;0.50;;;17.10;80.70;;;;;;6279063;28;20052;-79
2021/05/17 13:31:43;;;;;;;2.35;0.65;;;16.20;79.90;;;;;;6277498;28;20080;-79
2021/05/17 13:34:44;;;;;;;0.73;0.50;;;15.80;81.30;;;;;;6276631;28;20139;-79
2021/05/17 13:37:46;;;;;;;0.65;0.50;;;15.40;83.50;;;;;;6277548;28;20044;-78
2021/05/17 13:40:48;;;;;;;0.50;0.50;;;15.20;83.50;;;;;;6275704;28;20494;-77
2021/05/17 13:43:50;;;;;;;0.75;0.60;;;15.00;84.70;;;;;;6277967;28;20045;-77
2021/05/17 13:46:53;;;;;;;2.17;0.60;;;14.80;86.70;;;;;;6275659;28;20457;-78
2021/05/17 13:49:54;;;;;;;2.63;0.68;;;14.50;86.70;;;;;;6274273;28;20056;-76
2021/05/17 13:52:55;;;;;;;0.70;0.60;;;13.30;91.30;;;;;;6273361;28;20076;-77
2021/05/17 13:55:58;;;;;;;3.90;1.60;;;12.50;94.20;;;;;;6273894;28;20076;-77
2021/05/17 13:58:59;;;;;;;2.28;1.05;;;12.10;97.40;;;;;;6273343;28;20136;-77
2021/05/17 14:02:00;;;;;;;7.05;1.20;;;11.90;99.90;;;;;;6273339;28;20076;-77
2021/05/17 14:05:02;;;;;;;3.90;0.98;;;11.70;99.90;;;;;;6271506;28;20076;-77
2021/05/17 14:08:04;;;;;;;1.15;1.00;;;11.50;99.90;;;;;;6273524;28;20203;-77
2021/05/17 14:11:06;;;;;;;6.10;1.13;;;11.30;99.90;;;;;;6274839;28;20175;-77
2021/05/17 14:14:08;;;;;;;1.88;1.13;;;11.20;99.90;;;;;;6272605;28;20079;-78
2021/05/17 14:17:10;;;;;;;4.13;1.45;;;11.10;99.90;;;;;;6274702;28;20132;-79
2021/05/17 14:20:13;;;;;;;2.65;2.10;;;11.10;99.90;;;;;;6273445;28;21145;-78
2021/05/17 14:23:14;;;;;;;6.57;1.65;;;11.10;99.90;;;;;;6275206;28;20107;-78
2021/05/17 14:26:17;;;;;;;2.40;1.45;;;11.40;99.90;;;;;;6273036;28;20051;-78
2021/05/17 14:29:18;;;;;;;4.25;2.03;;;12.00;99.90;;;;;;6272485;28;20120;-79
2021/05/17 14:32:19;;;;;;;5.15;2.45;;;12.60;99.90;;;;;;6272391;28;20538;-77
2021/05/17 14:35:21;;;;;;;3.97;1.00;;;13.00;99.90;;;;;;6274809;28;20499;-78
2021/05/17 14:38:22;;;;;;;1.65;1.27;;;13.00;99.90;;;;;;6276041;28;20128;-78
2021/05/17 14:41:25;;;;;;;3.45;2.13;;;13.00;99.90;;;;;;6277979;28;20062;-79
2021/05/17 14:44:27;;;;;;;1.45;0.93;;;13.10;99.90;;;;;;6276074;28;20115;-78
2021/05/17 14:47:28;;;;;;;2.22;1.00;;;13.30;99.90;;;;;;6276596;28;20491;-79
2021/05/17 14:50:29;;;;;;;3.85;0.95;;;13.50;99.90;;;;;;6274780;28;20068;-80
2021/05/17 14:53:31;;;;;;;1.35;0.80;;;13.60;99.90;;;;;;6273370;28;20110;-78
2021/05/17 14:56:33;;;;;;;0.82;0.80;;;13.50;99.90;;;;;;6277746;28;20068;-78
2021/05/17 14:59:34;;;;;;;2.05;1.52;;;13.50;99.90;;;;;;6275263;28;20130;-78
2021/05/17 15:02:35;;;;;;;3.13;1.85;;;13.30;99.90;;;;;;6277685;28;20103;-78
2021/05/17 15:05:37;;;;;;;4.40;3.92;;;13.10;99.90;;;;;;6273220;28;20076;-78
2021/05/17 15:08:39;;;;;;;2.90;1.55;;;12.90;99.90;;;;;;6273799;28;20484;-78
2021/05/17 15:11:41;;;;;;;6.93;1.63;;;12.80;99.90;;;;;;6272656;28;20613;-78
2021/05/17 15:14:43;;;;;;;2.92;1.52;;;12.70;99.90;;;;;;6272714;28;20092;-78
2021/05/17 15:17:44;;;;;;;3.70;2.30;;;12.70;99.90;;;;;;6273533;28;20037;-77
2021/05/17 15:20:45;;;;;;;6.25;5.55;;;13.00;99.90;;;;;;6272238;28;20128;-78
2021/05/17 15:23:47;;;;;;;3.78;1.95;;;13.10;99.90;;;;;;6274956;28;20049;-78
2021/05/17 15:26:49;;;;;;;5.22;2.38;;;13.10;99.90;;;;;;6273492;28;20128;-78
2021/05/17 15:29:51;;;;;;;3.35;1.38;;;13.20;99.90;;;;;;6273195;28;20056;-77
2021/05/17 15:32:52;;;;;;;2.83;1.25;;;13.30;99.90;;;;;;6276023;28;20045;-79
2021/05/17 15:35:54;;;;;;;4.25;1.92;;;13.40;99.90;;;;;;6274491;28;20053;-77
2021/05/17 15:38:55;;;;;;;1.25;1.20;;;13.60;99.90;;;;;;6272392;28;20583;-77
2021/05/17 15:41:58;;;;;;;2.55;1.10;;;13.70;99.90;;;;;;6271726;28;20049;-78
2021/05/17 15:45:00;;;;;;;2.70;1.05;;;13.80;99.90;;;;;;6272132;28;20418;-78
2021/05/17 15:48:02;;;;;;;5.90;3.42;;;13.90;99.90;;;;;;6272125;28;20138;-77
2021/05/17 15:51:03;;;;;;;32.13;14.75;;;13.90;99.90;;;;;;6272930;28;20139;-77
2021/05/17 15:54:05;;;;;;;3.97;2.38;;;13.80;99.90;;;;;;6272064;28;20465;-77
2021/05/17 15:57:07;;;;;;;2.38;0.80;;;13.60;99.90;;;;;;6272828;28;20124;-77
2021/05/17 16:00:11;;;;;;;2.40;1.30;;;13.30;99.90;;;;;;6270952;28;20483;-77
2021/05/17 16:03:12;;;;;;;2.78;2.30;;;13.10;99.90;;;;;;6271957;28;20124;-76
2021/05/17 16:06:14;;;;;;;2.53;1.20;;;12.80;99.90;;;;;;6273105;28;20037;-78
2021/05/17 16:09:15;;;;;;;1.38;0.75;;;12.40;99.90;;;;;;6279079;28;20583;-78
2021/05/17 16:12:18;;;;;;;2.45;0.80;;;12.30;99.90;;;;;;6279873;28;20120;-78
2021/05/17 16:15:23;;;;;;;5.93;1.20;;;12.30;99.90;;;;;;6281410;28;20049;-78